Data for 09/27/2007

Time Sea-Level Adjusted Pressure Absolute Pressure Temperature Relative Humidity Dew Point   
(mb) (inHg) (mb) (inHg) (C) (F) (%) (C) (F)
00:05 1023 30.21 852 25.16 11 51.8 45 -0.5 31.2
00:10 1023 30.21 852 25.16 10.1 50.2 50 0.1 32.3
00:15 1023 30.21 852 25.16 9.1 48.4 53 0.1 32.2
00:20 1023 30.21 852 25.16 8.8 47.9 55 0.2 32.4
00:25 1023 30.21 852 25.16 8.9 48.1 49 -1.1 30
00:30 1023 30.21 852 25.16 9.8 49.6 48 -0.8 30.6
00:35 1023 30.21 852 25.16 9.8 49.6 47 -0.9 30.5
00:40 1023 30.21 852 25.16 10 50 47 -0.8 30.5
00:45 1023 30.21 852 25.16 10.1 50.1 47 -0.8 30.5
00:50 1023 30.21 852 25.16 9.8 49.7 49 -0.3 31.4
00:55 1023 30.21 852 25.16 9.5 49 49 -0.6 31
01:00 1023 30.21 852 25.16 9.6 49.3 49 -0.6 30.9
01:05 1023 30.21 852 25.16 9.5 49 49 -0.6 30.8
01:10 1023 30.21 852 25.16 9.5 49.1 51 -0.1 31.8
01:15 1023 30.21 852 25.16 8.8 47.8 54 0 32.1
01:20 1023 30.21 852 25.16 8.5 47.4 54 -0.2 31.7
01:25 1023 30.21 852 25.16 8.7 47.6 52 -0.6 30.9
01:30 1023 30.21 853 25.19 9 48.2 53 -0 31.9
01:35 1023 30.21 853 25.19 8.9 48.1 53 -0 31.9
01:40 1023 30.21 853 25.19 8.8 47.8 55 0.2 32.4
01:45 1023 30.21 853 25.19 8.3 47 57 0.4 32.7
01:50 1023 30.21 853 25.19 8.1 46.6 57 0.1 32.1
01:55 1023 30.21 853 25.19 8.3 47 56 0.1 32.2
02:00 1023 30.21 853 25.19 8.5 47.4 54 -0.1 31.8
02:05 1023 30.21 853 25.19 8.5 47.3 56 0.3 32.6
02:10 1023 30.21 853 25.19 8.2 46.7 56 -0.1 31.9
02:15 1023 30.21 853 25.19 8.3 46.9 55 -0.1 31.9
02:20 1023 30.21 853 25.19 8.2 46.7 58 0.5 32.9
02:25 1023 30.21 853 25.19 7.8 46 58 0.1 32.1
02:30 1024 30.24 853 25.19 7.5 45.5 60 0.2 32.4
02:35 1023 30.21 853 25.19 7.2 44.9 60 0.1 32.1
02:40 1023 30.21 853 25.19 7.3 45.2 59 -0.1 31.7
02:45 1023 30.21 853 25.19 7.4 45.4 59 -0.1 31.8
02:50 1023 30.21 853 25.19 7.4 45.4 59 -0 31.9
02:55 1023 30.21 852 25.16 7.3 45.1 60 0.1 32.2
03:00 1023 30.21 852 25.16 7.1 44.8 60 -0.1 31.8
03:05 1023 30.21 852 25.16 7.2 44.9 61 0.1 32.2
03:10 1023 30.21 852 25.16 6.8 44.2 63 0.3 32.5
03:15 1023 30.21 852 25.16 6.1 43 67 0.5 32.8
03:20 1023 30.21 852 25.16 5.6 42.1 67 -0 31.9
03:25 1023 30.21 852 25.16 5.9 42.7 64 -0.4 31.3
03:30 1023 30.21 852 25.16 6.5 43.6 63 -0.2 31.7
03:35 1023 30.21 852 25.16 6.6 43.9 62 -0.2 31.7
03:40 1023 30.21 852 25.16 6.7 44.1 62 -0 31.9
03:45 1023 30.21 852 25.16 6.8 44.2 62 0 32
03:50 1023 30.21 852 25.16 6.7 44 62 0 32
03:55 1023 30.21 852 25.16 6.6 43.9 62 -0.1 31.9
04:00 1023 30.21 852 25.16 6.6 44 62 -0.1 31.9
04:05 1023 30.21 852 25.16 6.6 43.9 63 0.1 32.2
04:10 1023 30.21 852 25.16 6.5 43.8 62 -0.2 31.7
04:15 1023 30.21 852 25.16 6.5 43.7 63 0.1 32.1
04:20 1023 30.21 852 25.16 6.2 43.2 65 0.2 32.3
04:25 1023 30.21 852 25.16 5.9 42.6 66 0.1 32.2
04:30 1023 30.21 852 25.16 5.7 42.3 67 0 32
04:35 1023 30.21 852 25.16 5.5 41.9 68 0 32.1
04:40 1023 30.21 852 25.16 5.4 41.7 67 -0.2 31.6
04:45 1023 30.21 852 25.16 5.6 42 66 -0.2 31.6
04:50 1023 30.21 852 25.16 5.8 42.4 66 -0.2 31.7
04:55 1023 30.21 852 25.16 6 42.7 65 -0.2 31.7
05:00 1023 30.21 852 25.16 6 42.8 65 -0.1 31.9
05:05 1023 30.21 852 25.16 6 42.8 65 -0.1 31.8
05:10 1023 30.21 852 25.16 6 42.9 64 -0.2 31.7
05:15 1023 30.21 852 25.16 5.9 42.7 66 -0 32
05:20 1023 30.21 852 25.16 6 42.8 65 -0.1 31.8
05:25 1023 30.21 852 25.16 6.1 42.9 65 -0 31.9
05:30 1023 30.21 852 25.16 6.1 42.9 64 -0.2 31.7
05:35 1023 30.21 852 25.16 6.2 43.1 64 -0.1 31.9
05:40 1023 30.21 852 25.16 6.2 43.1 64 -0.1 31.9
05:45 1023 30.21 852 25.16 6.1 43.1 65 0 32.1
05:50 1023 30.21 852 25.16 6 42.7 66 0.1 32.2
05:55 1023 30.21 852 25.16 5.6 42.2 67 0.1 32.2
06:00 1023 30.21 852 25.16 5.5 41.8 67 -0.1 31.8
06:05 1023 30.21 852 25.16 5.7 42.3 65 -0.3 31.4
06:10 1023 30.21 852 25.16 6.2 43.1 64 -0.1 31.8
06:15 1023 30.21 852 25.16 6.2 43.2 65 0 32.1
06:20 1023 30.21 852 25.16 6.2 43.1 63 -0.3 31.5
06:25 1023 30.21 852 25.16 6.4 43.6 62 -0.2 31.6
06:30 1023 30.21 852 25.16 6.4 43.5 64 0 32
06:35 1023 30.21 852 25.16 6.1 43 64 -0.1 31.9
06:40 1023 30.21 852 25.16 6 42.9 64 -0.3 31.4
06:45 1023 30.21 852 25.16 6.2 43.1 63 -0.4 31.3
06:50 1022 30.18 852 25.16 6.3 43.4 62 -0.3 31.4
06:55 1022 30.18 852 25.16 6.3 43.4 63 -0.2 31.6
07:00 1022 30.18 852 25.16 6.2 43.1 63 -0.3 31.5
07:05 1022 30.18 852 25.16 6 42.9 63 -0.4 31.2
07:10 1022 30.18 852 25.16 6 42.8 64 -0.3 31.4
07:15 1022 30.18 852 25.16 5.7 42.2 65 -0.4 31.3
07:20 1022 30.18 852 25.16 5.6 42 65 -0.6 31
07:25 1022 30.18 852 25.16 5.7 42.3 63 -0.8 30.5
07:30 1022 30.18 852 25.16 5.9 42.6 63 -0.6 31
07:35 1022 30.18 851 25.13 5.8 42.5 63 -0.6 30.9
07:40 1022 30.18 851 25.13 5.8 42.5 63 -0.6 30.9
07:45 1022 30.18 851 25.13 5.9 42.6 62 -0.7 30.7
07:50 1022 30.18 851 25.13 6.1 43 62 -0.7 30.7
07:55 1022 30.18 851 25.13 6.3 43.3 60 -0.8 30.6
08:00 1022 30.18 851 25.13 6.5 43.7 60 -0.7 30.7
08:05 1022 30.18 851 25.13 6.7 44 60 -0.6 30.9
08:10 1022 30.18 851 25.13 6.9 44.4 59 -0.6 30.9
08:15 1022 30.18 851 25.13 7 44.6 58 -0.6 30.9
08:20 1022 30.18 851 25.13 7.2 45 58 -0.5 31.1
08:25 1022 30.18 851 25.13 7.4 45.2 57 -0.5 31.1
08:30 1022 30.18 851 25.13 7.7 45.8 55 -0.7 30.7
08:35 1022 30.18 851 25.13 8.1 46.5 54 -0.6 30.8
08:40 1022 30.18 851 25.13 8.4 47.1 52 -0.8 30.6
08:45 1022 30.18 851 25.13 8.5 47.4 54 -0.3 31.5
08:50 1022 30.18 851 25.13 8.6 47.5 53 -0.5 31.1
08:55 1022 30.18 851 25.13 8.8 47.8 52 -0.4 31.2
09:00 1022 30.18 851 25.13 9 48.2 52 -0.3 31.4
09:05 1022 30.18 851 25.13 9.3 48.7 51 -0.3 31.4
09:10 1022 30.18 851 25.13 9.6 49.3 50 -0.1 31.8
09:15 1022 30.18 851 25.13 10 50 49 -0.3 31.5
09:20 1022 30.18 851 25.13 10.4 50.8 47 -0.5 31.2
09:25 1022 30.18 851 25.13 10.9 51.7 47 0 32
09:30 1022 30.18 851 25.13 11.5 52.8 44 -0.3 31.4
09:35 1022 30.18 851 25.13 12 53.5 41 -0.8 30.6
09:40 1021 30.15 851 25.13 12.2 53.9 42 -0.4 31.3
09:45 1021 30.15 851 25.13 12.5 54.4 40 -0.6 30.9
09:50 1021 30.15 851 25.13 12.7 54.9 40 -0.6 31
09:55 1021 30.15 850 25.1 13 55.4 40 -0.4 31.3
10:00 1021 30.15 850 25.1 13.3 55.9 37 -1.1 30
10:05 1021 30.15 850 25.1 14.3 57.7 40 0.8 33.5
10:10 1021 30.15 850 25.1 14.5 58.2 40 1.3 34.3
10:15 1021 30.15 850 25.1 14.7 58.4 40 1.3 34.3
10:20 1021 30.15 850 25.1 14.1 57.4 43 1.8 35.3
10:25 1021 30.15 850 25.1 13.6 56.5 42 1.1 34.1
10:30 1021 30.15 850 25.1 14.6 58.2 40 1.1 34
10:35 1021 30.15 850 25.1 13.6 56.4 44 1.6 35
10:40 1021 30.15 850 25.1 13.3 55.9 43 1.1 34
10:45 1021 30.15 850 25.1 13.8 56.9 44 1.8 35.3
10:50 1021 30.15 850 25.1 13.1 55.5 45 1.3 34.4
10:55 1021 30.15 850 25.1 13.2 55.7 44 1.3 34.4
11:00 1021 30.15 850 25.1 13.9 57 43 1.5 34.7
11:05 1021 30.15 850 25.1 13.6 56.4 44 1.5 34.7
11:10 1021 30.15 850 25.1 13.6 56.4 44 1.5 34.8
11:15 1021 30.15 850 25.1 13.9 57 42 1.2 34.1
11:20 1021 30.15 850 25.1 14.1 57.4 42 1.5 34.8
11:25 1020 30.12 850 25.1 14.5 58.1 39 0.8 33.5
11:30 1020 30.12 850 25.1 15.2 59.4 39 1.3 34.4
11:35 1020 30.12 850 25.1 15.2 59.4 38 1.2 34.2
11:40 1020 30.12 850 25.1 15.3 59.5 38 1.1 34
11:45 1020 30.12 849 25.07 15.5 59.8 38 1.3 34.4
11:50 1020 30.12 849 25.07 15.6 60.1 38 1.6 34.9
11:55 1020 30.12 849 25.07 15.4 59.8 38 1.2 34.1
12:00 1020 30.12 849 25.07 15.7 60.2 36 0.7 33.3
12:05 1020 30.12 849 25.07 16.5 61.6 35 1 33.9
12:10 1020 30.12 849 25.07 16.5 61.8 38 2.4 36.3
12:15 1020 30.12 849 25.07 16.3 61.3 36 1.3 34.4
12:20 1020 30.12 849 25.07 17 62.5 34 1 33.8
12:25 1019 30.09 849 25.07 17.5 63.6 33 1.3 34.3
12:30 1019 30.09 849 25.07 17.1 62.8 34 1.1 34
12:35 1019 30.09 848 25.04 18.3 64.9 32 1.6 34.8
12:40 1019 30.09 848 25.04 18 64.3 31 0.9 33.6
12:45 1019 30.09 848 25.04 17.5 63.5 32 0.9 33.7
12:50 1019 30.09 848 25.04 18.2 64.8 32 1.4 34.5
12:55 1019 30.09 848 25.04 18.4 65.1 30 0.8 33.5
13:00 1019 30.09 848 25.04 18.1 64.6 32 1.5 34.6
13:05 1019 30.09 848 25.04 18.8 65.8 31 1.4 34.6
13:10 1019 30.09 848 25.04 18.8 65.8 30 1.2 34.1
13:15 1019 30.09 848 25.04 18.7 65.7 32 2 35.6
13:20 1018 30.06 848 25.04 19.1 66.5 29 0.7 33.2
13:25 1018 30.06 848 25.04 19 66.3 28 0.2 32.4
13:30 1018 30.06 847 25.01 18.4 65.2 30 0.6 33.1
13:35 1018 30.06 847 25.01 18.9 66 30 1.1 34
13:40 1018 30.06 847 25.01 18.7 65.6 30 1.1 34
13:45 1018 30.06 847 25.01 18.6 65.5 29 0.6 33
13:50 1018 30.06 847 25.01 19.3 66.7 28 0.3 32.5
13:55 1018 30.06 847 25.01 20.2 68.4 27 0.7 33.2
14:00 1018 30.06 847 25.01 21.1 70 25 0.4 32.7
14:05 1018 30.06 847 25.01 21.7 71.1 22 -0.5 31.1
14:10 1017 30.03 847 25.01 21.6 70.9 24 0.6 33
14:15 1017 30.03 847 25.01 20.8 69.5 24 -0.4 31.3
14:20 1017 30.03 847 25.01 21.1 70 24 -0 31.9
14:25 1017 30.03 846 24.98 21.8 71.2 23 0.2 32.4
14:30 1017 30.03 846 24.98 21.1 70 24 -0.1 31.9
14:35 1017 30.03 846 24.98 20.5 68.9 25 -0.1 31.7
14:40 1017 30.03 846 24.98 20.5 69 25 -0.1 31.7
14:45 1017 30.03 846 24.98 21.4 70.4 23 -0.5 31.1
14:50 1017 30.03 846 24.98 22.1 71.9 21 -0.9 30.4
14:55 1017 30.03 846 24.98 21.4 70.6 23 -0.4 31.3
15:00 1017 30.03 846 24.98 21.8 71.2 21 -1 30.1
15:05 1017 30.03 846 24.98 22.2 72 22 -0.4 31.2
15:10 1017 30.03 846 24.98 22.4 72.2 22 -0.3 31.5
15:15 1016 30 846 24.98 22.7 72.8 21 -0.8 30.5
15:20 1016 30 846 24.98 23.1 73.7 20 -1.1 29.9
15:25 1016 30 846 24.98 23.7 74.6 19 -0.8 30.5
15:30 1016 30 845 24.95 23.5 74.2 19 -1.3 29.7
15:35 1016 30 845 24.95 22.4 72.4 21 -0.5 31.1
15:40 1016 30 845 24.95 22.5 72.5 19 -1.9 28.6
15:45 1016 30 845 24.95 22.7 72.9 20 -1.4 29.5
15:50 1016 30 845 24.95 22.4 72.3 19 -1.9 28.7
15:55 1016 30 845 24.95 23.2 73.7 19 -1.8 28.7
16:00 1016 30 845 24.95 23.4 74.1 18 -2 28.4
16:05 1016 30 845 24.95 23.5 74.3 18 -1.9 28.5
16:10 1016 30 845 24.95 22.3 72.1 20 -1.9 28.6
16:15 1016 30 845 24.95 23 73.4 19 -2 28.4
16:20 1016 30 845 24.95 23.7 74.6 18 -1.7 29
16:25 1015 29.97 845 24.95 23.5 74.3 19 -1.4 29.4
16:30 1015 29.97 845 24.95 22.1 71.7 19 -2.3 27.8
16:35 1015 29.97 844 24.92 21.9 71.4 19 -2.7 27.1
16:40 1015 29.97 844 24.92 22.1 71.8 18 -3 26.6
16:45 1015 29.97 844 24.92 22.9 73.3 18 -2.2 28
16:50 1015 29.97 844 24.92 22.7 72.8 19 -2.3 27.9
16:55 1015 29.97 844 24.92 22 71.6 18 -2.9 26.8
17:00 1015 29.97 844 24.92 21.9 71.5 18 -2.9 26.7
17:05 1015 29.97 844 24.92 21.7 71.1 18 -3.3 26
17:10 1015 29.97 844 24.92 22.2 72 18 -3 26.6
17:15 1015 29.97 844 24.92 22.2 71.9 17 -3.5 25.6
17:20 1015 29.97 844 24.92 22 71.6 17 -3.9 25
17:25 1015 29.97 844 24.92 22 71.6 18 -3.6 25.6
17:30 1015 29.97 844 24.92 22 71.6 17 -4.2 24.5
17:35 1015 29.97 844 24.92 22 71.5 17 -3.8 25.2
17:40 1015 29.97 844 24.92 22.4 72.3 17 -4 24.8
17:45 1015 29.97 844 24.92 22.9 73.2 17 -3.2 26.2
17:50 1015 29.97 844 24.92 22.3 72.2 17 -3.6 25.5
17:55 1014 29.94 844 24.92 22.3 72.2 17 -4.1 24.7
18:00 1014 29.94 844 24.92 22.4 72.2 16 -4.2 24.5
18:05 1014 29.94 844 24.92 22.7 72.8 16 -4.1 24.7
18:10 1014 29.94 844 24.92 23.2 73.7 15 -4.4 24.1
18:15 1014 29.94 844 24.92 23.6 74.4 16 -3.6 25.6
18:20 1014 29.94 843 24.89 23.9 74.9 15 -3.8 25.1
18:25 1014 29.94 843 24.89 23.5 74.3 17 -2.8 27
18:30 1014 29.94 843 24.89 23.1 73.7 18 -2.2 28
18:35 1014 29.94 843 24.89 22.6 72.7 24 1.3 34.4
18:40 1014 29.94 843 24.89 21.8 71.2 22 -0.7 30.8
18:45 1014 29.94 843 24.89 21.2 70.2 25 0.3 32.6
18:50 1014 29.94 843 24.89 21 69.8 20 -2.8 26.9
18:55 1014 29.94 843 24.89 20.8 69.4 23 -0.9 30.5
19:00 1014 29.94 843 24.89 20.5 69 27 1 33.8
19:05 1014 29.94 843 24.89 19.4 66.9 30 1.4 34.5
19:10 1014 29.94 843 24.89 18.7 65.6 33 2.2 36
19:15 1014 29.94 843 24.89 17.5 63.5 33 1.1 34
19:20 1014 29.94 843 24.89 17 62.6 31 -0.1 31.9
19:25 1014 29.94 843 24.89 17 62.6 33 0.6 33.1
19:30 1014 29.94 843 24.89 17 62.5 37 2.1 35.9
19:35 1014 29.94 843 24.89 17 62.5 33 0.7 33.3
19:40 1014 29.94 843 24.89 16 60.8 36 0.9 33.6
19:45 1014 29.94 843 24.89 15.8 60.4 35 0.3 32.6
19:50 1014 29.94 843 24.89 15.7 60.2 35 0.4 32.8
19:55 1014 29.94 843 24.89 15.3 59.6 36 0.6 33
20:00 1014 29.94 843 24.89 15.5 59.9 33 -0.6 31
20:05 1014 29.94 843 24.89 15.2 59.3 39 1.5 34.7
20:10 1014 29.94 843 24.89 15.1 59.2 34 -0.7 30.8
20:15 1014 29.94 843 24.89 14.5 58.1 35 -0.8 30.5
20:20 1014 29.94 843 24.89 14.3 57.8 34 -1.1 30
20:25 1014 29.94 843 24.89 14.5 58 34 -1.2 29.8
20:30 1014 29.94 843 24.89 14.5 58 39 0.8 33.5
20:35 1014 29.94 843 24.89 14.8 58.7 30 -2.7 27.2
20:40 1014 29.94 843 24.89 15.1 59.2 29 -3 26.7
20:45 1014 29.94 843 24.89 15.6 60.1 30 -2 28.4
20:50 1014 29.94 843 24.89 15.8 60.4 28 -2.5 27.5
20:55 1014 29.94 843 24.89 15.6 60.1 29 -2.4 27.6
21:00 1014 29.94 843 24.89 15.5 59.9 32 -1.2 29.8
21:05 1014 29.94 843 24.89 16.1 61.1 25 -3.9 25
21:10 1014 29.94 843 24.89 17.4 63.3 24 -3.2 26.2
21:15 1014 29.94 843 24.89 17 62.5 25 -2.8 26.9
21:20 1014 29.94 843 24.89 16.6 61.8 27 -2.3 27.9
21:25 1014 29.94 843 24.89 16.8 62.2 25 -3.1 26.4
21:30 1014 29.94 843 24.89 16.8 62.3 23 -4.1 24.6
21:35 1014 29.94 843 24.89 17.6 63.7 22 -4.3 24.2
21:40 1014 29.94 843 24.89 17.9 64.2 22 -3.7 25.3
21:45 1014 29.94 843 24.89 17.6 63.7 22 -4.2 24.5
21:50 1014 29.94 843 24.89 17.6 63.7 22 -4.1 24.6
21:55 1014 29.94 843 24.89 16.8 62.3 29 -1.2 29.8
22:00 1014 29.94 843 24.89 15.3 59.5 34 -0.3 31.5
22:05 1014 29.94 843 24.89 15.8 60.5 25 -4 24.8
22:10 1014 29.94 843 24.89 16.1 60.9 25 -3.7 25.3
22:15 1014 29.94 843 24.89 16.1 60.9 24 -4.2 24.5
22:20 1014 29.94 843 24.89 16.7 62.1 22 -5.3 22.5
22:25 1014 29.94 843 24.89 17.5 63.5 23 -4 24.8
22:30 1014 29.94 843 24.89 17.5 63.4 21 -4.9 23.1
22:35 1014 29.94 843 24.89 17.6 63.7 20 -5.3 22.4
22:40 1014 29.94 843 24.89 17.9 64.1 20 -5.1 22.8
22:45 1013 29.91 843 24.89 17.6 63.8 21 -4.6 23.7
22:50 1013 29.91 843 24.89 17.1 62.9 22 -4.9 23.3
22:55 1013 29.91 842 24.86 16.9 62.4 21 -5.3 22.5
23:00 1013 29.91 842 24.86 17.1 62.9 20 -5.8 21.6
23:05 1013 29.91 842 24.86 17.4 63.3 20 -5.4 22.3
23:10 1013 29.91 842 24.86 17.4 63.4 20 -5.5 22.1
23:15 1013 29.91 842 24.86 17.5 63.5 19 -6.2 20.8
23:20 1013 29.91 842 24.86 17.6 63.7 19 -6 21.2
23:25 1013 29.91 842 24.86 17.9 64.3 18 -6.4 20.4
23:30 1013 29.91 842 24.86 17.8 64.1 20 -5.6 21.9
23:35 1013 29.91 842 24.86 17.6 63.7 20 -5.4 22.4
23:40 1013 29.91 842 24.86 17.5 63.6 19 -6.3 20.7
23:45 1013 29.91 842 24.86 17.5 63.6 19 -6.4 20.5
23:50 1013 29.91 842 24.86 17.7 63.8 18 -6.6 20.1
23:55 1013 29.91 842 24.86 17.7 63.9 19 -6.4 20.5
24:00 1013 29.91 842 24.86 17.8 64 19 -6.3 20.7